Tiempo atmosférico en la estación meteorológica de Campos, Salines Llevant, Illes Balears (3 m.)



Fecha
DESCASC
Temp. máxima en grados centígrados (hora)
DESCASC
Temp. mínima en grados centígrados (hora)
DESCASC
Temp. media en grados centígrados
DESCASC
Racha de viento máxima en m/sg (hora)
DESCASC
Velocidad máxima media en intervalos de 10 minutos(hora)
DESCASC
Precipitaciones diarias en mm
DESCASC
Precipitaciones de 00:00 a 06:00 en mm
DESCASC
Precipitaciones de 06:00 a 12:00 en mm
DESCASC
Precipitaciones de 12:00 a 18:00 en mm
DESCASC
Precipitaciones de 18:00 a 24:00 en mm
DESCASC
25-04-2019 20.3 (12:40) 13.3 (07:00) 16.8 13.33 (13:00) 7.22 (13:00) 0 0 0 0 0
24-04-2019 18.7 (15:40) 14.5 (23:59) 16.6 13.33 (01:40) 8.33 (00:40) 0 0 0 0 0
23-04-2019 19.3 (17:00) 14 (04:40) 16.6 13.61 (23:59) 8.33 (23:59) 4.2 4.2 0 0 0
22-04-2019 16.1 (14:30) 13.7 (00:00) 14.9 12.78 (00:50) 8.06 (00:50) 2.2 1.2 0.8 0.2 0
21-04-2019 17.4 (15:10) 14.2 (00:00) 15.8 12.78 (12:50) 8.06 (15:20) 1.6 0 0 0 1.6
20-04-2019 18.6 (14:10) 15.7 (00:00) 17.2 18.89 (14:50) 11.39 (15:00) 0 0 0 0 0
19-04-2019 16.6 (15:00) 14.9 (00:00) 15.8 15 (14:50) 9.17 (14:50) 0.6 0.6 0 0 0
18-04-2019 19.5 (13:20) 14.4 (00:00) 16.9 17.78 (15:20) 10.28 (14:00) 0 0 0 0 0
17-04-2019 19.5 (14:50) 7.1 (00:00) 13.3 13.06 (17:00) 8.06 (17:10) 0 0 0 0 0
16-04-2019 19.3 (15:30) 9 (00:00) 14.1 8.33 (08:00) 5.28 (13:10) 1.4 0.8 0.6 0 0
15-04-2019 19.8 (13:50) 7.1 (00:00) 13.4 11.94 (15:40) 7.22 (15:30) 0 0 0 0 0
14-04-2019 19.6 (18:50) 9 (00:00) 14.3 11.11 (13:50) 7.78 (14:00) 0 0 0 0 0
13-04-2019 18.4 (16:40) 3.5 (00:00) 10.9 9.72 (17:00) 7.5 (17:00) 0 0 0 0 0
12-04-2019 18.5 (15:50) 8.5 (00:00) 13.5 8.89 (13:30) 6.11 (13:30) 0 0 0 0 0
11-04-2019 18.8 (17:00) 7.1 (00:00) 12.9 12.5 (15:40) 9.17 (15:50) 0 0 0 0 0
10-04-2019 17.6 (16:30) 10.7 (00:00) 14.2 11.94 (07:20) 8.89 (07:20) 5.6 0 3.8 0.8 1
09-04-2019 18.8 (13:10) 7.7 (00:00) 13.2 16.39 (15:40) 10.28 (15:30) 0 0 0 0 0
08-04-2019 18.7 (15:40) 2.4 (00:00) 10.6 10 (16:00) 6.94 (16:00) 0 0 0 0 0
07-04-2019 17.2 (15:50) 7.2 (00:00) 12.2 13.61 (10:30) 9.72 (10:30) 0 0 0 0 0
06-04-2019 16.4 (15:50) 10.4 (00:00) 13.4 16.67 (07:10) 11.67 (07:50) 2.6 2.4 0.2 0 0
05-04-2019 17.5 (14:40) 0 (00:00) 8.8 11.11 (16:00) 8.06 (15:30) 0.4 0 0 0.2 0.2
04-04-2019 17.6 (16:50) 9.8 (00:00) 13.7 11.67 (01:10) 8.33 (01:10) 0.6 0.6 0 0 0
03-04-2019 18.4 (14:00) 10.6 (00:00) 14.5 9.44 (14:50) 6.39 (14:20) 0 0 0 0 0
02-04-2019 17.9 (13:20) 5.4 (00:00) 11.6 7.22 (12:40) 4.72 (12:30) 0 0 0 0 0
01-04-2019 18.4 (14:50) 10.9 (00:00) 14.6 8.61 (15:30) 5.83 (16:10) 0.2 0 0.2 0 0
31-03-2019 17.9 (12:30) 10.5 (00:00) 14.2 12.22 (13:00) 7.78 (13:00) 0.6 0 0 0 0.6
30-03-2019 18.1 (12:20) 5.9 (00:00) 12 9.72 (15:00) 5.83 (17:00) 0 0 0 0 0
29-03-2019 17.8 (13:40) 0.7 (00:00) 9.2 10.56 (13:10) 6.94 (15:30) 0 0 0 0 0
28-03-2019 18.8 (13:10) 0.3 (00:00) 9.5 11.11 (13:00) 6.94 (13:30) 0 0 0 0 0
27-03-2019 17.8 (13:20) 0.8 (00:00) 9.3 13.61 (12:00) 8.61 (13:40) 0 0 0 0 0

Gráficas

Temp. máximas Temp. mínimas Temp. medias Precipitaciones Rachas de viento máximas Velocidades máximas media en intervalos de 10 minutos

Datos horarios

Fecha y hora oficial Temperatura (ºC) Velocidad del viento (km/h) Dirección del viento Racha (km/h) Dirección de racha Precipitación (mm) Presión (hPa) Tendencia (hPa) Humedad (%)
2019-04-25 23:00:00 16 10 Sudoeste 21 Sudoeste 0 -- -- 88
2019-04-25 22:00:00 16.1 9 Sudoeste 21 Oeste 0 -- -- 86
2019-04-25 21:00:00 16.6 12 Sudoeste 27 Sudoeste 0 -- -- 83
2019-04-25 20:00:00 17.3 16 Sudoeste 34 Sudoeste 0 -- -- 77
2019-04-25 19:00:00 18 22 Sudoeste 39 Sudoeste 0 -- -- 73
2019-04-25 18:00:00 18 19 Sudoeste 41 Sudoeste 0 -- -- 72
2019-04-25 17:00:00 18.2 19 Sudoeste 39 Sudoeste 0 -- -- 71
2019-04-25 16:00:00 18.2 18 Sudoeste 35 Sudoeste 0 -- -- 68
2019-04-25 15:00:00 18.5 18 Sudoeste 41 Sudoeste 0 -- -- 70
2019-04-25 14:00:00 18.4 23 Sur 44 Sur 0 -- -- 68
2019-04-25 13:00:00 19.7 26 Sudoeste 48 Sudoeste 0 -- -- 64
2019-04-25 12:00:00 19.8 23 Sur 41 Sur 0 -- -- 64
2019-04-25 11:00:00 19.1 19 Sur 37 Sudeste 0 -- -- 66
2019-04-25 10:00:00 18.4 18 Sur 36 Sudoeste 0 -- -- 71
2019-04-25 09:00:00 17.1 18 Sur 26 Sur 0 -- -- 76
2019-04-25 08:00:00 14.9 12 Sur 18 Sur 0 -- -- 92
2019-04-25 07:00:00 13.3 9 Sudeste 14 Sudeste 0 -- -- 91
2019-04-25 06:00:00 14.3 8 Sudeste 18 Sur 0 -- -- 89
2019-04-25 05:00:00 14.4 13 Sur 19 Sur 0 -- -- 90
2019-04-25 04:00:00 14.4 12 Sur 22 Sur 0 -- -- 89
2019-04-25 03:00:00 14.6 14 Sur 23 Sur 0 -- -- 88
2019-04-25 02:00:00 14.8 13 Sur 24 Sur 0 -- -- 87
2019-04-25 01:00:00 14.9 15 Sur 27 Sur 0 -- -- 88
2019-04-25 00:00:00 14.5 12 Sur 18 Sur 0 -- -- 86
2019-04-24 23:00:00 15.2 10 Sudoeste 26 Sudoeste 0 -- -- 83
2019-04-24 22:00:00 15.4 12 Sudoeste 24 Sudoeste 0 -- -- 81
2019-04-24 21:00:00 15.6 12 Sudoeste 29 Sudoeste 0 -- -- 79
2019-04-24 20:00:00 16.8 14 Sudoeste 32 Sur 0 -- -- 74
2019-04-24 19:00:00 17.5 20 Sudoeste 34 Sudoeste 0 -- -- 72
2019-04-24 18:00:00 18 19 Sudoeste 33 Sudoeste 0 -- -- 69
2019-04-24 17:00:00 18.6 17 Sudoeste 31 Sudoeste 0 -- -- 61
2019-04-24 16:00:00 18.6 18 Sudoeste 32 Sudoeste 0 -- -- 58
2019-04-24 15:00:00 18.5 18 Sudoeste 33 Oeste 0 -- -- 64
2019-04-24 14:00:00 18.4 18 Sudoeste 31 Sudoeste 0 -- -- 63
2019-04-24 13:00:00 18.3 18 Sudoeste 32 Sudoeste 0 -- -- 59
2019-04-24 12:00:00 17.9 18 Sudoeste 39 Sudoeste 0 -- -- 60
2019-04-24 11:00:00 17.5 18 Sudoeste 29 Oeste 0 -- -- 60
2019-04-24 10:00:00 16.9 15 Sudoeste 31 Oeste 0 -- -- 59
2019-04-24 09:00:00 16.1 18 Oeste 34 Oeste 0 -- -- 63
2019-04-24 08:00:00 15.4 17 Oeste 33 Oeste 0 -- -- 66
2019-04-24 07:00:00 15.1 18 Oeste 30 Oeste 0 -- -- 70
2019-04-24 06:00:00 15.6 18 Sudoeste 37 Sudoeste 0 -- -- 84
2019-04-24 05:00:00 15.7 22 Sudoeste 44 Sudoeste 0 -- -- 83
2019-04-24 04:00:00 15.8 26 Sudoeste 46 Sudoeste 0 -- -- 81
2019-04-24 03:00:00 15.9 27 Sudoeste 47 Sur 0 -- -- 81
2019-04-24 02:00:00 15.9 23 Sudoeste 48 Sudoeste 0 -- -- 85
2019-04-24 01:00:00 15.9 24 Sudoeste 46 Sur 0 -- -- 84
2019-04-24 00:00:00 16.1 30 Sur 49 Sudoeste 0 -- -- 81
2019-04-23 23:00:00 16.3 22 Sudoeste 34 Sudoeste 0 -- -- 84
2019-04-23 22:00:00 16.3 15 Sudoeste 32 Sudoeste 0 -- -- 86
2019-04-23 21:00:00 16.4 19 Sudoeste 33 Sudoeste 0 -- -- 85
2019-04-23 20:00:00 16.7 18 Sudoeste 36 Sudoeste 0 -- -- 84
2019-04-23 19:00:00 18.2 22 Sudoeste 37 Sudoeste 0 -- -- 79
2019-04-23 18:00:00 18 17 Sudoeste 36 Sudoeste 0 -- -- 80
2019-04-23 17:00:00 19.3 19 Sudoeste 41 Sudoeste 0 -- -- 78
2019-04-23 16:00:00 19.2 16 Sudoeste 35 Sudoeste 0 -- -- 79
2019-04-23 15:00:00 18.7 15 Sudoeste 28 Sudoeste 0 -- -- 82
2019-04-23 14:00:00 18.8 15 Sudoeste 27 Sudoeste 0 -- -- 82
2019-04-23 13:00:00 18.1 15 Sudoeste 27 Sudoeste 0 -- -- 86
2019-04-23 12:00:00 17.6 13 Sudoeste 25 Sudoeste 0 -- -- 84
2019-04-23 11:00:00 17.2 16 Sudoeste 24 Oeste 0 -- -- 85
2019-04-23 10:00:00 16.8 13 Sudoeste 27 Sudoeste 0 -- -- 86
2019-04-23 09:00:00 16.1 10 Sudoeste 21 Oeste 0 -- -- 86
2019-04-23 08:00:00 14.5 9 Noroeste 27 Oeste 0 -- -- 89
2019-04-23 07:00:00 14.6 22 Oeste 38 Oeste 0 -- -- 90
2019-04-23 06:00:00 14.4 19 Oeste 31 Oeste 0 -- -- 93
2019-04-23 05:00:00 14 16 Oeste 33 Noroeste 0 -- -- 94
2019-04-23 04:00:00 14.3 23 Oeste 39 Oeste 2.2 -- -- 95
2019-04-23 03:00:00 14.5 27 Noroeste 39 Oeste 2 -- -- 95
2019-04-23 02:00:00 15 17 Oeste 31 Oeste 0 -- -- 93
2019-04-23 01:00:00 15.6 17 Oeste 23 Oeste 0 -- -- 93
2019-04-23 00:00:00 15.6 9 Oeste 17 Oeste 0 -- -- 94
2019-04-22 23:00:00 15.5 8 Oeste 18 Noroeste 0 -- -- 95
2019-04-22 22:00:00 15.4 14 Noroeste 20 Noroeste 0 -- -- 96
2019-04-22 21:00:00 15.3 13 Noroeste 19 Noroeste 0 -- -- 96
2019-04-22 20:00:00 15.2 14 Noroeste 23 Noroeste 0 -- -- 96
2019-04-22 19:00:00 15.4 16 Noroeste 23 Noroeste 0 -- -- 96
2019-04-22 18:00:00 15.6 14 Norte 25 Norte 0 -- -- 95
2019-04-22 17:00:00 15.7 15 Norte 28 Norte 0 -- -- 95
2019-04-22 16:00:00 15.9 12 Norte 24 Norte 0 -- -- 95
2019-04-22 15:00:00 15.9 17 Norte 24 Norte 0 -- -- 96
2019-04-22 14:00:00 15.7 15 Norte 23 Norte 0.2 -- -- 98
2019-04-22 13:00:00 15.6 13 Norte 24 Norte 0 -- -- 98
2019-04-22 12:00:00 15.7 15 Norte 20 Norte 0 -- -- 98
2019-04-22 11:00:00 15.3 10 Nordeste 14 Nordeste 0.2 -- -- 98
2019-04-22 10:00:00 15.1 9 Nordeste 25 Este 0.2 -- -- 97
2019-04-22 09:00:00 15 12 Nordeste 29 Nordeste 0.2 -- -- 97
2019-04-22 08:00:00 14.8 14 Nordeste 27 Nordeste 0.2 -- -- 98
2019-04-22 07:00:00 14.3 10 Nordeste 21 Nordeste 0 -- -- 97
2019-04-22 06:00:00 14.1 14 Nordeste 31 Nordeste 0 -- -- 96
2019-04-22 05:00:00 14.3 19 Nordeste 31 Nordeste 0 -- -- 96
2019-04-22 04:00:00 14.3 15 Nordeste 35 Este 0 -- -- 95
2019-04-22 03:00:00 14.5 18 Nordeste 41 Nordeste 0.2 -- -- 93
2019-04-22 02:00:00 13.9 19 Nordeste 44 Nordeste 0 -- -- 97
2019-04-22 01:00:00 14 26 Nordeste 46 Nordeste 1 -- -- 97
2019-04-22 00:00:00 14.8 22 Este 35 Este 0.6 -- -- 96
2019-04-21 23:00:00 14.4 11 Nordeste 30 Este 0.6 -- -- 96
2019-04-21 22:00:00 14.6 21 Nordeste 42 Nordeste 0.4 -- -- 94
2019-04-21 21:00:00 14.7 22 Nordeste 42 Nordeste 0 -- -- 93
2019-04-21 20:00:00 14.6 26 Nordeste 40 Nordeste 0 -- -- 93
2019-04-21 19:00:00 15.6 22 Nordeste 46 Nordeste 0 -- -- 87
2019-04-21 18:00:00 15.5 23 Nordeste 44 Este 0 -- -- 91
2019-04-21 17:00:00 16.1 26 Nordeste 43 Nordeste 0 -- -- 87
2019-04-21 16:00:00 16.5 25 Nordeste 44 Nordeste 0 -- -- 85
2019-04-21 15:00:00 17.2 25 Nordeste 43 Nordeste 0 -- -- 81
2019-04-21 14:00:00 16.8 26 Nordeste 43 Nordeste 0 -- -- 83
2019-04-21 13:00:00 16.5 25 Nordeste 46 Este 0 -- -- 83
2019-04-21 12:00:00 16.2 23 Nordeste 40 Este 0 -- -- 86
2019-04-21 11:00:00 15.8 18 Este 32 Este 0 -- -- 89
2019-04-21 10:00:00 15.1 16 Nordeste 35 Este 0 -- -- 92
2019-04-21 09:00:00 15 15 Nordeste 28 Nordeste 0 -- -- 92
2019-04-21 08:00:00 14.8 14 Nordeste 28 Este 0 -- -- 91
2019-04-21 07:00:00 15 18 Este 32 Nordeste 0 -- -- 90
2019-04-21 06:00:00 15.3 14 Este 35 Este 0 -- -- 88
2019-04-21 05:00:00 15.3 18 Este 33 Este 0 -- -- 88
2019-04-21 04:00:00 15.2 17 Este 35 Este 0 -- -- 88
2019-04-21 03:00:00 15.1 18 Nordeste 38 Este 0 -- -- 89
2019-04-21 02:00:00 14.9 17 Nordeste 36 Este 0 -- -- 90
2019-04-21 01:00:00 15.4 18 Nordeste 33 Este 0 -- -- 85
2019-04-21 00:00:00 15.7 22 Este 45 Este 0 -- -- 79
2019-04-20 23:00:00 16 24 Este 42 Este 0 -- -- 76
2019-04-20 22:00:00 16.1 23 Este 48 Este 0 -- -- 75
2019-04-20 21:00:00 16.3 23 Este 42 Este 0 -- -- 74
2019-04-20 20:00:00 16.4 19 Este 53 Este 0 -- -- 74
2019-04-20 19:00:00 16.6 24 Este 48 Este 0 -- -- 72
2019-04-20 18:00:00 16.9 26 Este 55 Este 0 -- -- 70
2019-04-20 17:00:00 17.2 31 Nordeste 57 Nordeste 0 -- -- 70
2019-04-20 16:00:00 17.7 31 Nordeste 63 Este 0 -- -- 68
2019-04-20 15:00:00 18.5 41 Este 68 Este 0 -- -- 66
2019-04-20 14:00:00 18.1 36 Este 57 Este 0 -- -- 67
2019-04-20 13:00:00 17.1 38 Nordeste 62 Este 0 -- -- 67
2019-04-20 12:00:00 17 37 Nordeste 61 Este 0 -- -- 68
2019-04-20 11:00:00 16.7 36 Nordeste 58 Este 0 -- -- 68
2019-04-20 10:00:00 16.3 26 Este 56 Este 0 -- -- 70
2019-04-20 09:00:00 16.4 30 Este 59 Este 0 -- -- 68
2019-04-20 08:00:00 16.1 29 Este 59 Nordeste 0 -- -- 69
2019-04-20 07:00:00 16.1 31 Este 55 Este 0 -- -- 73
2019-04-20 06:00:00 16 30 Este 59 Este 0 -- -- 73
2019-04-20 05:00:00 16.2 32 Nordeste 64 Este 0 -- -- 70
2019-04-20 04:00:00 16.2 30 Nordeste 53 Nordeste 0 -- -- 70
2019-04-20 03:00:00 16.3 27 Nordeste 50 Nordeste 0 -- -- 70
2019-04-20 02:00:00 16.3 24 Nordeste 46 Nordeste 0 -- -- 71
2019-04-20 01:00:00 16.4 28 Nordeste 52 Nordeste 0 -- -- 73
2019-04-20 00:00:00 16.4 30 Nordeste 49 Nordeste 0 -- -- 76
2019-04-19 23:00:00 16.4 27 Nordeste 50 Nordeste 0 -- -- 79
2019-04-19 22:00:00 16.3 29 Nordeste 48 Nordeste 0 -- -- 81
2019-04-19 21:00:00 16.1 27 Nordeste 47 Este 0 -- -- 86
2019-04-19 20:00:00 16.2 25 Este 46 Nordeste 0 -- -- 87
2019-04-19 19:00:00 16.3 20 Este 46 Nordeste 0 -- -- 87
2019-04-19 18:00:00 16.4 23 Este 45 Nordeste 0 -- -- 86
2019-04-19 17:00:00 16.3 24 Este 50 Nordeste 0 -- -- 87
2019-04-19 16:00:00 16.4 24 Este 51 Nordeste 0 -- -- 86
2019-04-19 15:00:00 16.6 32 Nordeste 54 Nordeste 0 -- -- 86
2019-04-19 14:00:00 16.4 25 Este 49 Este 0 -- -- 87
2019-04-19 13:00:00 16.1 26 Este 46 Este 0 -- -- 88
2019-04-19 12:00:00 15.8 23 Este 40 Este 0 -- -- 90
2019-04-19 11:00:00 15.2 21 Este 41 Nordeste 0 -- -- 95
2019-04-19 10:00:00 15.1 19 Este 35 Este 0 -- -- 95
2019-04-19 09:00:00 15.1 21 Este 39 Este 0 -- -- 96
2019-04-19 08:00:00 15 21 Este 38 Este 0 -- -- 96
2019-04-19 07:00:00 14.9 17 Este 34 Este 0 -- -- 97
2019-04-19 06:00:00 14.9 15 Este 25 Este 0.2 -- -- 97
2019-04-19 05:00:00 14.9 14 Este 21 Este 0.2 -- -- 96
2019-04-19 04:00:00 15 12 Este 22 Este 0.2 -- -- 95
2019-04-19 03:00:00 15.4 13 Este 31 Este 0 -- -- 92
2019-04-19 02:00:00 16.1 18 Este 32 Este 0 -- -- 87
2019-04-19 01:00:00 16.1 15 Este 30 Este 0 -- -- 86
2019-04-19 00:00:00 16.2 17 Este 31 Este 0 -- -- 85
2019-04-18 23:00:00 16.2 18 Este 35 Este 0 -- -- 84
2019-04-18 22:00:00 16.2 25 Este 41 Este 0 -- -- 85
2019-04-18 21:00:00 16.2 23 Este 45 Este 0 -- -- 84
2019-04-18 20:00:00 16.3 20 Este 43 Este 0 -- -- 83
2019-04-18 19:00:00 16.6 25 Este 54 Este 0 -- -- 82
2019-04-18 18:00:00 17.4 30 Este 54 Este 0 -- -- 77
2019-04-18 17:00:00 18.3 29 Este 57 Este 0 -- -- 73
2019-04-18 16:00:00 18.2 28 Este 64 Este 0 -- -- 74
2019-04-18 15:00:00 18.2 32 Este 57 Este 0 -- -- 74
2019-04-18 14:00:00 18.5 37 Este 57 Este 0 -- -- 73
2019-04-18 13:00:00 19.2 33 Este 53 Este 0 -- -- 71
2019-04-18 12:00:00 18.2 29 Este 46 Este 0 -- -- 76
2019-04-18 11:00:00 17.9 28 Este 45 Este 0 -- -- 77
2019-04-18 10:00:00 16.9 23 Nordeste 44 Nordeste 0 -- -- 79
2019-04-18 09:00:00 15.9 25 Nordeste 40 Nordeste 0 -- -- 85
2019-04-18 08:00:00 15.3 20 Nordeste 37 Nordeste 0 -- -- 87
2019-04-18 07:00:00 15 12 Este 43 Nordeste 0 -- -- 88
2019-04-18 06:00:00 14.8 17 Nordeste 28 Nordeste 0 -- -- 87
2019-04-18 05:00:00 14.7 18 Este 33 Este 0 -- -- 86
2019-04-18 04:00:00 14.5 18 Nordeste 29 Este 0 -- -- 88
2019-04-18 03:00:00 14.4 14 Nordeste 25 Este 0 -- -- 91
2019-04-18 02:00:00 14.5 13 Este 24 Este 0 -- -- 90
2019-04-18 01:00:00 14.5 13 Nordeste 23 Nordeste 0 -- -- 89
2019-04-18 00:00:00 14.5 10 Nordeste 22 Este 0 -- -- 88
2019-04-17 23:00:00 14.4 9 Nordeste 18 Nordeste 0 -- -- 86
2019-04-17 22:00:00 14.4 8 Nordeste 20 Este 0 -- -- 86
2019-04-17 21:00:00 15 9 Nordeste 25 Nordeste 0 -- -- 83
2019-04-17 20:00:00 16 15 Este 31 Este 0 -- -- 78
2019-04-17 19:00:00 17.2 19 Este 34 Este 0 -- -- 74
2019-04-17 18:00:00 17.8 20 Este 44 Sudeste 0 -- -- 70
2019-04-17 17:00:00 18.2 29 Este 47 Sudeste 0 -- -- 69
2019-04-17 16:00:00 19.1 24 Este 36 Este 0 -- -- 66
2019-04-17 15:00:00 19.2 21 Este 35 Este 0 -- -- 64
2019-04-17 14:00:00 19.3 18 Este 32 Este 0 -- -- 64
2019-04-17 13:00:00 19 18 Sudeste 31 Sudeste 0 -- -- 65
2019-04-17 12:00:00 18.5 21 Este 29 Este 0 -- -- 66
2019-04-17 11:00:00 17.6 16 Este 28 Este 0 -- -- 69
2019-04-17 10:00:00 16.1 17 Este 26 Sudeste 0 -- -- 76
2019-04-17 09:00:00 13.2 9 Nordeste 13 Nordeste 0 -- -- 93
2019-04-17 08:00:00 10.3 5 Norte 14 Nordeste 0 -- -- 95
2019-04-17 07:00:00 10.9 10 Nordeste 16 Nordeste 0 -- -- 95
2019-04-17 06:00:00 9.8 4 Norte 11 Nordeste 0 -- -- 94
2019-04-17 05:00:00 7.1 0 Calma 6 Nordeste 0 -- -- 92
2019-04-17 04:00:00 8 0 Calma 3 Noroeste 0 -- -- 91
2019-04-17 03:00:00 9.2 0 Calma 9 Nordeste 0 -- -- 89
2019-04-17 02:00:00 10.9 4 Nordeste 8 Nordeste 0 -- -- 93
2019-04-17 01:00:00 10.4 6 Nordeste 8 Nordeste 0 -- -- 92
2019-04-17 00:00:00 11.4 0 Calma 10 Nordeste 0 -- -- 87
2019-04-16 23:00:00 13.3 6 Nordeste 10 Nordeste 0 -- -- 84
2019-04-16 22:00:00 14.3 4 Este 12 Este 0 -- -- 78
2019-04-16 21:00:00 15.4 4 Nordeste 18 Este 0 -- -- 70
2019-04-16 20:00:00 17.1 13 Este 25 Este 0 -- -- 61
2019-04-16 19:00:00 19 10 Sudeste 18 Sudeste 0 -- -- 59
2019-04-16 18:00:00 18.7 10 Sudoeste 18 Sur 0 -- -- 69
2019-04-16 17:00:00 19 12 Sudoeste 23 Sudoeste 0 -- -- 70
2019-04-16 16:00:00 18.9 14 Sudoeste 26 Sudoeste 0 -- -- 72
2019-04-16 15:00:00 18.9 15 Sudoeste 23 Sudoeste 0 -- -- 66
2019-04-16 14:00:00 18.9 14 Sudoeste 25 Oeste 0 -- -- 65
2019-04-16 13:00:00 18.8 15 Oeste 22 Oeste 0 -- -- 69
2019-04-16 12:00:00 18.2 14 Oeste 22 Sudoeste 0 -- -- 72
2019-04-16 11:00:00 18.5 5 Nordeste 11 Norte 0.2 -- -- 67
2019-04-16 10:00:00 16.3 5 Este 13 Este 0 -- -- 76
2019-04-16 09:00:00 13.3 0 Calma 24 Este 0 -- -- 90
2019-04-16 08:00:00 12.7 17 Este 30 Este 0 -- -- 92
2019-04-16 07:00:00 11.3 4 Nordeste 16 Nordeste 0.4 -- -- 94
2019-04-16 06:00:00 12.3 14 Nordeste 23 Nordeste 0.8 -- -- 92
2019-04-16 05:00:00 11.3 7 Nordeste 16 Nordeste 0 -- -- 89
2019-04-16 04:00:00 11.3 10 Nordeste 18 Norte 0 -- -- 89
2019-04-16 03:00:00 10.9 8 Nordeste 16 Nordeste 0 -- -- 91
2019-04-16 02:00:00 9.1 0 Calma 9 Nordeste 0 -- -- 86
2019-04-16 01:00:00 10.7 2 Este 8 Este 0 -- -- 84
2019-04-16 00:00:00 11.4 6 Este 10 Este 0 -- -- 83
2019-04-15 23:00:00 12.9 5 Nordeste 13 Este 0 -- -- 77
2019-04-15 22:00:00 14.1 7 Este 15 Este 0 -- -- 74
2019-04-15 21:00:00 14.8 8 Este 27 Este 0 -- -- 68
2019-04-15 20:00:00 16 15 Este 30 Este 0 -- -- 60
2019-04-15 19:00:00 16.8 18 Este 35 Este 0 -- -- 48
2019-04-15 18:00:00 18.3 20 Sudeste 33 Sudeste 0 -- -- 40
2019-04-15 17:00:00 18.5 24 Sudeste 35 Sudeste 0 -- -- 34
2019-04-15 16:00:00 19.5 24 Sudeste 43 Sudeste 0 -- -- 37
2019-04-15 15:00:00 19.5 24 Sudeste 37 Este 0 -- -- 37
2019-04-15 14:00:00 19.4 23 Sudeste 36 Sudeste 0 -- -- 38
2019-04-15 13:00:00 19.3 23 Sudeste 35 Este 0 -- -- 40
2019-04-15 12:00:00 19.3 19 Sudeste 31 Este 0 -- -- 49
2019-04-15 11:00:00 18.6 15 Este 26 Este 0 -- -- 49
2019-04-15 10:00:00 17.7 15 Este 22 Este 0 -- -- 55
2019-04-15 09:00:00 13.5 6 Norte 9 Norte 0 -- -- 82
2019-04-15 08:00:00 8.5 0 Calma 6 Norte 0 -- -- 94
2019-04-15 07:00:00 7.1 4 Nordeste 5 Nordeste 0 -- -- 92
2019-04-15 06:00:00 7.6 0 Calma 3 Este 0 -- -- 91
2019-04-15 05:00:00 10 2 Este 9 Norte 0 -- -- 88
2019-04-15 04:00:00 11.8 4 Nordeste 8 Este 0 -- -- 86
2019-04-15 03:00:00 13.6 5 Este 21 Este 0 -- -- 85
2019-04-15 02:00:00 14.2 6 Este 18 Este 0 -- -- 86
2019-04-15 01:00:00 14.4 10 Este 21 Este 0 -- -- 87
2019-04-15 00:00:00 14.2 13 Este 19 Este 0 -- -- 91
2019-04-14 23:00:00 14.2 12 Sudeste 18 Este 0 -- -- 90
2019-04-14 22:00:00 14.6 9 Sudeste 16 Este 0 -- -- 87
2019-04-14 21:00:00 15.4 8 Sudeste 17 Sudeste 0 -- -- 84
2019-04-14 20:00:00 17.4 14 Sudeste 20 Sudeste 0 -- -- 75
2019-04-14 19:00:00 19.2 13 Sudeste 21 Sudoeste 0 -- -- 64
2019-04-14 18:00:00 18.7 11 Sur 31 Sudoeste 0 -- -- 69
2019-04-14 17:00:00 18.8 22 Oeste 34 Sudoeste 0 -- -- 71
2019-04-14 16:00:00 18.4 18 Sudoeste 36 Sudoeste 0 -- -- 72
2019-04-14 15:00:00 19.1 23 Oeste 36 Oeste 0 -- -- 66
2019-04-14 14:00:00 19.3 28 Oeste 40 Sudoeste 0 -- -- 65
2019-04-14 13:00:00 18.6 25 Oeste 34 Sudoeste 0 -- -- 75
2019-04-14 12:00:00 18.2 19 Oeste 30 Oeste 0 -- -- 81
2019-04-14 11:00:00 17.6 21 Oeste 31 Oeste 0 -- -- 85
2019-04-14 10:00:00 16.8 14 Sudoeste 26 Sudoeste 0 -- -- 94
2019-04-14 09:00:00 11.7 2 Noroeste 4 Noroeste 0 -- -- 98
2019-04-14 08:00:00 10.1 0 Calma 4 Sudeste 0 -- -- 98
2019-04-14 07:00:00 10.6 0 Calma 2 Sur 0 -- -- 97
2019-04-14 06:00:00 9.5 0 Calma 4 Norte 0 -- -- 96
2019-04-14 05:00:00 11.4 3 Norte 13 Oeste 0 -- -- 90
2019-04-14 04:00:00 14.4 6 Sudoeste 15 Oeste 0 -- -- 92
2019-04-14 03:00:00 14.6 9 Oeste 23 Sudoeste 0 -- -- 91
2019-04-14 02:00:00 14.2 9 Oeste 18 Oeste 0 -- -- 95
2019-04-14 01:00:00 9.5 0 Calma 4 Norte 0 -- -- 90
2019-04-14 00:00:00 11.3 0 Calma 8 Oeste 0 -- -- 88
2019-04-13 23:00:00 14.9 7 Oeste 21 Oeste 0 -- -- 88
2019-04-13 22:00:00 15.2 14 Oeste 23 Oeste 0 -- -- 88
2019-04-13 21:00:00 15.6 17 Oeste 27 Oeste 0 -- -- 86
2019-04-13 20:00:00 16.6 19 Oeste 29 Oeste 0 -- -- 79
2019-04-13 19:00:00 17.3 19 Oeste 32 Oeste 0 -- -- 75
2019-04-13 18:00:00 17.8 23 Oeste 33 Sudoeste 0 -- -- 71
2019-04-13 17:00:00 17.9 27 Oeste 35 Sudoeste 0 -- -- 69
2019-04-13 16:00:00 18.1 25 Oeste 34 Sudoeste 0 -- -- 72
2019-04-13 15:00:00 18 18 Sudoeste 32 Sudoeste 0 -- -- 70
2019-04-13 14:00:00 17.8 16 Sudoeste 26 Oeste 0 -- -- 70
2019-04-13 13:00:00 17.8 14 Sudoeste 26 Sudoeste 0 -- -- 68
2019-04-13 12:00:00 17.1 13 Sudoeste 23 Sudoeste 0 -- -- 74
2019-04-13 11:00:00 16.9 9 Sudoeste 15 Sudoeste 0 -- -- 73
2019-04-13 10:00:00 13.7 3 Noroeste 4 Oeste 0 -- -- 84
2019-04-13 09:00:00 8.6 0 Calma 3 Norte 0 -- -- 93
2019-04-13 08:00:00 4.2 0 Calma 2 Sur 0 -- -- 95
2019-04-13 07:00:00 3.7 0 Calma 2 Sudeste 0 -- -- 93
2019-04-13 06:00:00 4.2 0 Calma 3 Norte 0 -- -- 94
2019-04-13 05:00:00 4.4 0 Calma 3 Sudeste 0 -- -- 93
2019-04-13 04:00:00 4.9 2 Sudeste 3 Norte 0 -- -- 92
2019-04-13 03:00:00 5.4 0 Calma 3 Norte 0 -- -- 91
2019-04-13 02:00:00 5.9 0 Calma 3 Nordeste 0 -- -- 90
2019-04-13 01:00:00 6.9 0 Calma 4 Norte 0 -- -- 89
2019-04-13 00:00:00 8.5 0 Calma 5 Sudeste 0 -- -- 86
2019-04-12 23:00:00 9.4 5 Sudeste 7 Sudeste 0 -- -- 85
2019-04-12 22:00:00 10.3 6 Sudeste 9 Sudeste 0 -- -- 78
2019-04-12 21:00:00 12.4 6 Sudeste 10 Sur 0 -- -- 72
2019-04-12 20:00:00 15.8 9 Sur 18 Sur 0 -- -- 61
2019-04-12 19:00:00 17.1 11 Sur 22 Sur 0 -- -- 55
2019-04-12 18:00:00 18 13 Sur 22 Sur 0 -- -- 53
2019-04-12 17:00:00 17.5 16 Sur 24 Sur 0 -- -- 53
2019-04-12 16:00:00 18 13 Sur 30 Sudeste 0 -- -- 49
2019-04-12 15:00:00 17.1 17 Sudeste 29 Sudeste 0 -- -- 55
2019-04-12 14:00:00 17.5 18 Sudeste 32 Este 0 -- -- 54
2019-04-12 13:00:00 17.9 16 Este 26 Sudeste 0 -- -- 53
2019-04-12 12:00:00 18.4 9 Sur 19 Nordeste 0 -- -- 54
2019-04-12 11:00:00 17.5 11 Nordeste 19 Nordeste 0 -- -- 53
2019-04-12 10:00:00 15.6 5 Norte 11 Norte 0 -- -- 69
2019-04-12 09:00:00 13.2 4 Norte 7 Nordeste 0 -- -- 87
2019-04-12 08:00:00 11.8 2 Nordeste 13 Nordeste 0 -- -- 94
2019-04-12 07:00:00 11.1 3 Sudeste 9 Sur 0 -- -- 94
2019-04-12 06:00:00 10.6 -- -- -- -- 0 -- -- 93
2019-04-12 05:00:00 9.8 2 Sudeste 3 Sudeste 0 -- -- 91
2019-04-12 04:00:00 11.3 0 Calma 9 Norte 0 -- -- 88
2019-04-12 03:00:00 12.3 6 Norte 20 Oeste 0 -- -- 85
2019-04-12 02:00:00 12.7 13 Oeste 19 Oeste 0 -- -- 86
2019-04-12 01:00:00 11.7 2 Sur 16 Norte 0 -- -- 82
2019-04-12 00:00:00 12.7 8 Noroeste 11 Noroeste 0 -- -- 85
2019-04-11 23:00:00 13.5 8 Noroeste 10 Noroeste 0 -- -- 78
2019-04-11 22:00:00 14 9 Oeste 17 Oeste 0 -- -- 74
2019-04-11 21:00:00 14.5 14 Oeste 28 Oeste 0 -- -- 75
2019-04-11 20:00:00 15.8 21 Oeste 33 Oeste 0 -- -- 73
2019-04-11 19:00:00 16.9 23 Oeste 37 Oeste 0 -- -- 67
2019-04-11 18:00:00 18.4 28 Oeste 41 Oeste 0 -- -- 62
2019-04-11 17:00:00 18.8 27 Oeste 42 Oeste 0 -- -- 60
2019-04-11 16:00:00 17.5 32 Oeste 45 Oeste 0 -- -- 68
2019-04-11 15:00:00 17.9 26 Oeste 38 Oeste 0 -- -- 67
2019-04-11 14:00:00 17.9 19 Oeste 30 Oeste 0 -- -- 70
2019-04-11 13:00:00 17.2 19 Oeste 27 Sudoeste 0 -- -- 69
2019-04-11 12:00:00 17.7 13 Oeste 18 Oeste 0 -- -- 69
2019-04-11 11:00:00 15.4 0 Calma 5 Oeste 0 -- -- 72
2019-04-11 10:00:00 12.2 0 Calma 7 Sur 0 -- -- 89
2019-04-11 09:00:00 9.2 4 Norte 6 Norte 0 -- -- 93
2019-04-11 08:00:00 7.8 0 Calma 6 Sudeste 0 -- -- 95
2019-04-11 07:00:00 7.6 0 Calma 4 Norte 0 -- -- 94
2019-04-11 06:00:00 7.7 3 Sudeste 5 Oeste 0 -- -- 94
2019-04-11 05:00:00 7.5 0 Calma 3 Sur 0 -- -- 94
2019-04-11 04:00:00 7.5 0 Calma 5 Norte 0 -- -- 93
2019-04-11 03:00:00 9.1 0 Calma 3 Sudeste 0 -- -- 93
2019-04-11 02:00:00 8.6 2 Sur 4 Sudeste 0 -- -- 92
2019-04-11 01:00:00 9.2 0 Calma 3 Sudeste 0 -- -- 89
2019-04-11 00:00:00 12 2 Oeste 10 Oeste 0 -- -- 77
2019-04-10 23:00:00 13.5 8 Oeste 14 Oeste 0 -- -- 76
2019-04-10 22:00:00 14.1 10 Oeste 22 Oeste 0 -- -- 75
2019-04-10 21:00:00 14.7 14 Oeste 27 Oeste 0 -- -- 73
2019-04-10 20:00:00 15.5 18 Oeste 83 Oeste 1 -- -- 72
2019-04-10 19:00:00 16.1 25 Oeste 37 Oeste 0 -- -- 66
2019-04-10 18:00:00 16.9 28 Oeste 41 Oeste 0 -- -- 64
2019-04-10 17:00:00 17.3 25 Oeste 38 Oeste 0 -- -- 66
2019-04-10 16:00:00 17.2 26 Oeste 43 Oeste 0 -- -- 65
2019-04-10 15:00:00 16.9 22 Oeste 31 Sudoeste 0 -- -- 62
2019-04-10 14:00:00 16.5 18 Oeste 27 Oeste 0 -- -- 65
2019-04-10 13:00:00 14.3 13 Oeste 31 Oeste 0.8 -- -- 78
2019-04-10 12:00:00 15.3 17 Oeste 30 Oeste 0 -- -- 73
2019-04-10 11:00:00 14.5 12 Oeste 16 Oeste 0 -- -- 77
2019-04-10 10:00:00 11.5 0 Calma 7 Noroeste 0 -- -- 87
2019-04-10 09:00:00 10.9 5 Norte 17 Noroeste 1.4 -- -- 90
2019-04-10 08:00:00 11 9 Noroeste 43 Oeste 2.4 -- -- 89
2019-04-10 07:00:00 12.8 18 Oeste 26 Noroeste 0 -- -- 74
2019-04-10 06:00:00 14 14 Oeste 27 Oeste 0 -- -- 82
2019-04-10 05:00:00 14.1 16 Oeste 31 Oeste 0 -- -- 78
2019-04-10 04:00:00 14 13 Oeste 37 Oeste 0 -- -- 76
2019-04-10 03:00:00 14.6 23 Oeste 40 Oeste 0 -- -- 74
2019-04-10 02:00:00 14.9 24 Oeste 39 Oeste 0 -- -- 73
2019-04-10 01:00:00 15 24 Oeste 36 Oeste 0 -- -- 71
2019-04-10 00:00:00 14.9 18 Oeste 43 Oeste 0 -- -- 72
2019-04-09 23:00:00 15.3 26 Oeste 47 Oeste 0 -- -- 77
2019-04-09 22:00:00 15.2 13 Sudoeste 26 Sudoeste 0 -- -- 78
2019-04-09 21:00:00 14.9 11 Sudoeste 18 Sudoeste 0 -- -- 77
2019-04-09 20:00:00 16.4 12 Oeste 26 Oeste 0 -- -- 71
2019-04-09 19:00:00 17.2 19 Oeste 35 Oeste 0 -- -- 64
2019-04-09 18:00:00 17.5 25 Oeste 41 Oeste 0 -- -- 63
2019-04-09 17:00:00 17.6 31 Oeste 43 Oeste 0 -- -- 68
2019-04-09 16:00:00 17.6 35 Oeste 59 Oeste 0 -- -- 61
2019-04-09 15:00:00 18.1 31 Oeste 44 Oeste 0 -- -- 62
2019-04-09 14:00:00 17.8 30 Oeste 42 Oeste 0 -- -- 71
2019-04-09 13:00:00 18.4 27 Oeste 43 Oeste 0 -- -- 72
2019-04-09 12:00:00 17.9 30 Oeste 41 Oeste 0 -- -- 71
2019-04-09 11:00:00 17.5 25 Oeste 37 Oeste 0 -- -- 78
2019-04-09 10:00:00 16.7 27 Oeste 40 Oeste 0 -- -- 76
2019-04-09 09:00:00 16.1 14 Sudoeste 28 Sudoeste 0 -- -- 84
2019-04-09 08:00:00 15.2 13 Sudoeste 30 Sudoeste 0 -- -- 90
2019-04-09 07:00:00 14.4 18 Sudoeste 31 Sudoeste 0 -- -- 98
2019-04-09 06:00:00 8.1 0 Calma 4 Sur 0 -- -- 97
2019-04-09 05:00:00 8.5 0 Calma 3 Sudeste 0 -- -- 96
2019-04-09 04:00:00 9.2 0 Calma 3 Nordeste 0 -- -- 97
2019-04-09 03:00:00 9.5 0 Calma 6 Norte 0 -- -- 95
2019-04-09 02:00:00 10.1 3 Sudeste 5 Sudeste 0 -- -- 94
2019-04-09 01:00:00 11.6 0 Calma 3 Sur 0 -- -- 94
2019-04-09 00:00:00 12.6 0 Calma 8 Sudoeste 0 -- -- 92
2019-04-08 23:00:00 14.4 4 Sudoeste 8 Sudoeste 0 -- -- 93
2019-04-08 22:00:00 15.1 6 Sudoeste 12 Sudoeste 0 -- -- 91
2019-04-08 21:00:00 15.3 4 Sudoeste 18 Oeste 0 -- -- 89
2019-04-08 20:00:00 16.6 12 Oeste 26 Oeste 0 -- -- 81
2019-04-08 19:00:00 17.2 12 Sudoeste 28 Oeste 0 -- -- 78
2019-04-08 18:00:00 18 20 Oeste 31 Oeste 0 -- -- 74
2019-04-08 17:00:00 18.4 21 Oeste 34 Oeste 0 -- -- 71
2019-04-08 16:00:00 18.5 25 Oeste 36 Oeste 0 -- -- 72
2019-04-08 15:00:00 18.3 18 Sudoeste 32 Sudoeste 0 -- -- 74
2019-04-08 14:00:00 18.3 18 Sudoeste 33 Sudoeste 0 -- -- 69
2019-04-08 13:00:00 17.4 16 Sudoeste 31 Sudoeste 0 -- -- 70
2019-04-08 12:00:00 16.8 13 Sudoeste 25 Oeste 0 -- -- 72
2019-04-08 11:00:00 16.7 15 Oeste 23 Oeste 0 -- -- 72
2019-04-08 10:00:00 12.5 4 Oeste 7 Sudoeste 0 -- -- 89
2019-04-08 09:00:00 7.2 0 Calma 2 Sudeste 0 -- -- 92
2019-04-08 08:00:00 5 0 Calma 3 Norte 0 -- -- 93
2019-04-08 07:00:00 3.9 0 Calma 3 Noroeste 0 -- -- 93
2019-04-08 06:00:00 2.5 0 Calma 2 Sur 0 -- -- 92
2019-04-08 05:00:00 2.6 0 Calma 3 Nordeste 0 -- -- 92
2019-04-08 04:00:00 2.8 0 Calma 3 Norte 0 -- -- 90
2019-04-08 03:00:00 3.6 0 Calma 2 Norte 0 -- -- 89
2019-04-08 02:00:00 4.7 0 Calma 6 Sudoeste 0 -- -- 88
2019-04-08 01:00:00 5.3 3 Sudeste 4 Sudeste 0 -- -- 86
2019-04-08 00:00:00 7.2 2 Este 4 Este 0 -- -- 79
2019-04-07 23:00:00 11.4 0 Calma 15 Oeste 0 -- -- 72
2019-04-07 22:00:00 12.2 4 Noroeste 21 Oeste 0 -- -- 72
2019-04-07 21:00:00 13.7 19 Oeste 24 Oeste 0 -- -- 67
2019-04-07 20:00:00 15.1 13 Oeste 36 Noroeste 0 -- -- 58
2019-04-07 19:00:00 15.6 26 Noroeste 38 Noroeste 0 -- -- 55
2019-04-07 18:00:00 16.5 26 Noroeste 45 Noroeste 0 -- -- 53
2019-04-07 17:00:00 16.5 31 Noroeste 44 Noroeste 0 -- -- 51
2019-04-07 16:00:00 16.7 31 Oeste 42 Noroeste 0 -- -- 57
2019-04-07 15:00:00 15.3 27 Oeste 46 Oeste 0 -- -- 58
2019-04-07 14:00:00 15.4 30 Oeste 41 Oeste 0 -- -- 58
2019-04-07 13:00:00 14.8 25 Oeste 35 Oeste 0 -- -- 65
2019-04-07 12:00:00 14.2 15 Oeste 27 Oeste 0 -- -- 65
2019-04-07 11:00:00 12.9 16 Oeste 49 Oeste 0 -- -- 62
2019-04-07 10:00:00 12.2 19 Noroeste 34 Oeste 0 -- -- 74
2019-04-07 09:00:00 11.3 28 Noroeste 40 Oeste 0 -- -- 73
2019-04-07 08:00:00 12.9 21 Noroeste 36 Oeste 0 -- -- 69
2019-04-07 07:00:00 12.7 23 Oeste 38 Oeste 0 -- -- 74
2019-04-07 06:00:00 12.7 23 Oeste 41 Oeste 0 -- -- 73
2019-04-07 05:00:00 13.3 29 Oeste 42 Oeste 0 -- -- 70
2019-04-07 04:00:00 13.4 22 Oeste 39 Oeste 0 -- -- 68
2019-04-07 03:00:00 14 27 Oeste 37 Oeste 0 -- -- 67
2019-04-07 02:00:00 14.3 24 Oeste 38 Oeste 0 -- -- 69
2019-04-07 01:00:00 14.1 21 Oeste 40 Oeste 0 -- -- 71
2019-04-07 00:00:00 13.8 9 Sudoeste 35 Oeste 0 -- -- 70
2019-04-06 23:00:00 14.3 23 Oeste 35 Sudoeste 0 -- -- 65
2019-04-06 22:00:00 14.1 11 Sudoeste 29 Oeste 0 -- -- 70
2019-04-06 21:00:00 14.6 22 Oeste 35 Oeste 0 -- -- 69
2019-04-06 20:00:00 15 23 Oeste 40 Oeste 0 -- -- 62
2019-04-06 19:00:00 15.1 21 Sudoeste 42 Sudoeste 0 -- -- 59
2019-04-06 18:00:00 15.9 21 Sudoeste 41 Oeste 0 -- -- 57
2019-04-06 17:00:00 16.2 26 Oeste 43 Oeste 0 -- -- 53
2019-04-06 16:00:00 16.3 31 Oeste 53 Oeste 0 -- -- 51
2019-04-06 15:00:00 15.9 36 Oeste 51 Oeste 0 -- -- 56
2019-04-06 14:00:00 15.6 29 Oeste 46 Oeste 0 -- -- 61
2019-04-06 13:00:00 15.2 32 Oeste 47 Oeste 0 -- -- 59
2019-04-06 12:00:00 15.6 28 Oeste 44 Oeste 0 -- -- 59
2019-04-06 11:00:00 14.4 28 Oeste 42 Oeste 0 -- -- 64
2019-04-06 10:00:00 14.2 35 Oeste 49 Oeste 0 -- -- 62
2019-04-06 09:00:00 13.3 37 Oeste 57 Oeste 0 -- -- 66
2019-04-06 08:00:00 13.2 36 Oeste 60 Oeste 0 -- -- 64
2019-04-06 07:00:00 13 37 Oeste 50 Oeste 0.2 -- -- 69
2019-04-06 06:00:00 12.5 25 Oeste 43 Oeste 0 -- -- 70
2019-04-06 05:00:00 10.4 8 Sudoeste 30 Oeste 0 -- -- 91
2019-04-06 04:00:00 10.6 6 Oeste 33 Oeste 0.2 -- -- 90
2019-04-06 03:00:00 12.2 21 Sudoeste 48 Oeste 2.2 -- -- 88
2019-04-06 02:00:00 13.8 13 Sudoeste 32 Sudoeste 0 -- -- 81
2019-04-06 01:00:00 13.4 12 Sudoeste 22 Sudoeste 0 -- -- 83
2019-04-06 00:00:00 13.6 7 Sudoeste 28 Sudoeste 0 -- -- 84
2019-04-05 23:00:00 15 20 Sudoeste 35 Sudoeste 0 -- -- 78
2019-04-05 22:00:00 14.7 17 Sudoeste 32 Sur 0 -- -- 83
2019-04-05 21:00:00 15.2 15 Sudoeste 33 Sudoeste 0 -- -- 78
2019-04-05 20:00:00 15.3 18 Sur 33 Sur 0 -- -- 76
2019-04-05 19:00:00 15.7 22 Sur 35 Sur 0.2 -- -- 74
2019-04-05 18:00:00 16.2 21 Sur 40 Sur 0.2 -- -- 73
2019-04-05 17:00:00 16.4 24 Sur 40 Sur 0 -- -- 72
2019-04-05 16:00:00 16.9 26 Sur 40 Sur 0 -- -- 67
2019-04-05 15:00:00 17.5 26 Sur 38 Sur 0 -- -- 62
2019-04-05 14:00:00 17.3 23 Sur 31 Sudeste 0 -- -- 62
2019-04-05 13:00:00 17.1 21 Sur 32 Sur 0 -- -- 63
2019-04-05 12:00:00 16.5 17 Sur 28 Sur 0 -- -- 58
2019-04-05 11:00:00 15.8 12 Sudoeste 23 Sudoeste 0 -- -- 56
2019-04-05 10:00:00 10.5 3 Noroeste 5 Noroeste 0 -- -- 81
2019-04-05 09:00:00 5.2 0 Calma 3 Norte 0 -- -- 89
2019-04-05 08:00:00 0.9 0 Calma 3 Sudeste 0 -- -- 94
2019-04-05 07:00:00 0.2 0 Calma 3 Sudeste 0 -- -- 93
2019-04-05 06:00:00 0.9 0 Calma 4 Sudeste 0 -- -- 92
2019-04-05 05:00:00 1.1 0 Calma 3 Este 0 -- -- 91
2019-04-05 04:00:00 1.7 0 Calma 4 Nordeste 0 -- -- 89
2019-04-05 03:00:00 3.2 0 Calma 5 Sudeste 0 -- -- 88
2019-04-05 02:00:00 5.2 0 Calma 9 Sudeste 0 -- -- 85
2019-04-05 01:00:00 6.4 4 Sudeste 7 Sudeste 0 -- -- 81
2019-04-05 00:00:00 9.8 5 Noroeste 17 Este 0 -- -- 77
2019-04-04 23:00:00 10.9 12 Este 19 Este 0 -- -- 73
2019-04-04 22:00:00 11.1 9 Este 15 Este 0 -- -- 72
2019-04-04 21:00:00 12 8 Este 15 Noroeste 0 -- -- 67
2019-04-04 20:00:00 14.3 14 Noroeste 32 Oeste 0 -- -- 55
2019-04-04 19:00:00 15.3 26 Oeste 36 Sudoeste 0 -- -- 56
2019-04-04 18:00:00 16.1 27 Oeste 39 Oeste 0 -- -- 53
2019-04-04 17:00:00 17.5 18 Noroeste 28 Noroeste 0 -- -- 38
2019-04-04 16:00:00 17.2 17 Noroeste 33 Noroeste 0 -- -- 31
2019-04-04 15:00:00 16.8 16 Noroeste 32 Noroeste 0 -- -- 36
2019-04-04 14:00:00 16.1 21 Noroeste 32 Oeste 0 -- -- 39
2019-04-04 13:00:00 15.3 22 Noroeste 35 Noroeste 0 -- -- 42
2019-04-04 12:00:00 14 20 Noroeste 36 Noroeste 0 -- -- 53
2019-04-04 11:00:00 13 20 Noroeste 29 Noroeste 0 -- -- 59
2019-04-04 10:00:00 12.4 21 Noroeste 28 Noroeste 0 -- -- 68
2019-04-04 09:00:00 10.5 2 Sur 3 Oeste 0 -- -- 90
2019-04-04 08:00:00 10.4 0 Calma 9 Norte 0 -- -- 86
2019-04-04 07:00:00 10.9 6 Noroeste 10 Noroeste 0 -- -- 85
2019-04-04 06:00:00 11 5 Norte 9 Norte 0 -- -- 87
2019-04-04 05:00:00 10.9 7 Nordeste 18 Nordeste 0 -- -- 88
2019-04-04 04:00:00 10.9 12 Nordeste 25 Norte 0 -- -- 89
2019-04-04 03:00:00 10.6 18 Nordeste 37 Norte 0.6 -- -- 93
2019-04-04 02:00:00 12.2 26 Norte 42 Norte 0 -- -- 82
2019-04-04 01:00:00 13.6 21 Nordeste 39 Nordeste 0 -- -- 81
2019-04-04 00:00:00 14.3 3 Este 11 Norte 0 -- -- 92
2019-04-03 23:00:00 14.5 3 Sudoeste 12 Noroeste 0 -- -- 92
2019-04-03 22:00:00 15.1 4 Sudoeste 13 Sudoeste 0 -- -- 90
2019-04-03 21:00:00 15.2 9 Sudoeste 19 Sur 0 -- -- 89
2019-04-03 20:00:00 16 8 Sur 19 Sur 0 -- -- 86
2019-04-03 19:00:00 17 9 Sudoeste 20 Oeste 0 -- -- 81
2019-04-03 18:00:00 16.9 12 Sudoeste 29 Sudoeste 0 -- -- 82
2019-04-03 17:00:00 17.1 15 Sudoeste 32 Sudoeste 0 -- -- 82
2019-04-03 16:00:00 17.9 19 Sudoeste 33 Sudoeste 0 -- -- 80
2019-04-03 15:00:00 18.1 19 Sudoeste 34 Sur 0 -- -- 77
2019-04-03 14:00:00 18.4 17 Sudoeste 30 Sur 0 -- -- 76
2019-04-03 13:00:00 17.7 18 Sur 29 Sur 0 -- -- 77
2019-04-03 12:00:00 17.4 15 Sudoeste 26 Sur 0 -- -- 78
2019-04-03 11:00:00 17 15 Sudoeste 24 Sudoeste 0 -- -- 80
2019-04-03 10:00:00 16 13 Sur 21 Sur 0 -- -- 82
2019-04-03 09:00:00 15.1 9 Sur 17 Sudoeste 0 -- -- 87
2019-04-03 08:00:00 14.5 9 Sur 16 Sur 0 -- -- 89
2019-04-03 07:00:00 14.5 10 Sudoeste 15 Sur 0 -- -- 91
2019-04-03 06:00:00 13.7 5 Sur 11 Sudoeste 0 -- -- 93
2019-04-03 05:00:00 13 4 Sur 8 Sur 0 -- -- 95
2019-04-03 04:00:00 12.9 4 Sur 6 Sudeste 0 -- -- 95
2019-04-03 03:00:00 12.5 4 Sudeste 6 Sudeste 0 -- -- 95
2019-04-03 02:00:00 10.6 5 Sur 7 Sur 0 -- -- 93
2019-04-03 01:00:00 12.3 2 Sur 10 Sur 0 -- -- 89
2019-04-03 00:00:00 14.5 6 Sudoeste 18 Sudoeste 0 -- -- 90
2019-04-02 23:00:00 14.4 8 Sudoeste 13 Sudoeste 0 -- -- 92
2019-04-02 22:00:00 11.8 4 Sur 6 Sudoeste 0 -- -- 90
2019-04-02 21:00:00 13.6 3 Sur 10 Sudoeste 0 -- -- 85
2019-04-02 20:00:00 16 6 Oeste 17 Oeste 0 -- -- 82
2019-04-02 19:00:00 16.9 9 Sudoeste 21 Oeste 0 -- -- 78
2019-04-02 18:00:00 17.1 12 Sudoeste 22 Sudoeste 0 -- -- 77
2019-04-02 17:00:00 17.4 13 Sudoeste 23 Oeste 0 -- -- 76
2019-04-02 16:00:00 17.7 11 Sudoeste 23 Oeste 0 -- -- 73
2019-04-02 15:00:00 17.8 15 Sudoeste 25 Sudoeste 0 -- -- 73
2019-04-02 14:00:00 17.5 14 Sudoeste 24 Oeste 0 -- -- 74
2019-04-02 13:00:00 17.4 12 Sudoeste 26 Oeste 0 -- -- 76
2019-04-02 12:00:00 16.8 15 Oeste 23 Oeste 0 -- -- 76
2019-04-02 11:00:00 15.6 11 Oeste 17 Sudoeste 0 -- -- 80
2019-04-02 10:00:00 13.7 5 Oeste 9 Oeste 0 -- -- 88
2019-04-02 09:00:00 9.2 0 Calma -- -- 0 -- -- 95
2019-04-02 08:00:00 5.7 0 Calma 3 Sudeste 0 -- -- 95
2019-04-02 07:00:00 5.5 0 Calma 2 Sudeste 0 -- -- 94
2019-04-02 06:00:00 5.7 2 Sur 3 Sudeste 0 -- -- 94
2019-04-02 05:00:00 6.5 0 Calma 2 Sudeste 0 -- -- 93
2019-04-02 04:00:00 7.6 2 Sudeste 4 Sudeste 0 -- -- 91
2019-04-02 03:00:00 9.7 0 Calma 4 Sur 0 -- -- 90
2019-04-02 02:00:00 11.8 0 Calma 4 Nordeste 0 -- -- 90
2019-04-02 01:00:00 12 0 Calma 4 Norte 0 -- -- 90
2019-04-02 00:00:00 12.5 4 Nordeste 6 Norte 0 -- -- 91
2019-04-01 23:00:00 11 0 Calma -- -- 0 -- -- 87
2019-04-01 22:00:00 12.9 0 Calma 4 Sudoeste 0 -- -- 82
2019-04-01 21:00:00 14.5 3 Sudoeste 7 Sudoeste 0 -- -- 78
2019-04-01 20:00:00 15.6 2 Sur 9 Sudeste 0 -- -- 76
2019-04-01 19:00:00 16 5 Sudeste 12 Sur 0 -- -- 75
2019-04-01 18:00:00 16.1 9 Sudeste 19 Sudeste 0 -- -- 74
2019-04-01 17:00:00 16.7 16 Sudeste 28 Este 0 -- -- 67
2019-04-01 16:00:00 18 19 Sudeste 31 Sudeste 0 -- -- 65
2019-04-01 15:00:00 18.2 16 Este 24 Este 0 -- -- 61
2019-04-01 14:00:00 17.8 12 Este 27 Este 0 -- -- 59
2019-04-01 13:00:00 17.8 14 Sudeste 24 Sudeste 0 -- -- 66
2019-04-01 12:00:00 15.2 9 Nordeste 18 Este 0 -- -- 73
2019-04-01 11:00:00 14.8 10 Nordeste 17 Nordeste 0 -- -- 75
2019-04-01 10:00:00 13.9 8 Nordeste 12 Norte 0.2 -- -- 86
2019-04-01 09:00:00 13 5 Norte 12 Norte 0 -- -- 90
2019-04-01 08:00:00 13.2 7 Norte 13 Nordeste 0 -- -- 88
2019-04-01 07:00:00 13.5 7 Nordeste 17 Nordeste 0 -- -- 87
2019-04-01 06:00:00 13.7 9 Nordeste 19 Nordeste 0 -- -- 86
2019-04-01 05:00:00 13.7 10 Nordeste 18 Nordeste 0 -- -- 87
2019-04-01 04:00:00 13.8 6 Nordeste 13 Nordeste 0 -- -- 87
2019-04-01 03:00:00 13.9 7 Nordeste 19 Nordeste 0 -- -- 87
2019-04-01 02:00:00 13.9 6 Nordeste 17 Nordeste 0 -- -- 87
2019-04-01 01:00:00 14 10 Nordeste 23 Nordeste 0 -- -- 88
2019-04-01 00:00:00 13.9 10 Nordeste 19 Nordeste 0 -- -- 92
2019-03-31 23:00:00 14.1 8 Nordeste 18 Nordeste 0 -- -- 92
2019-03-31 22:00:00 14.2 12 Este 25 Este 0 -- -- 92
2019-03-31 21:00:00 14.3 12 Nordeste 23 Nordeste 0.4 -- -- 93
2019-03-31 20:00:00 14.7 13 Nordeste 25 Este 0 -- -- 91
2019-03-31 19:00:00 15.5 14 Nordeste 23 Este 0.2 -- -- 87
2019-03-31 18:00:00 16.2 16 Este 29 Este 0 -- -- 84
2019-03-31 17:00:00 16.6 18 Este 37 Este 0 -- -- 82
2019-03-31 16:00:00 17.1 24 Este 38 Sudeste 0 -- -- 80
2019-03-31 15:00:00 17.2 22 Este 43 Este 0 -- -- 79
2019-03-31 14:00:00 17.3 26 Este 41 Este 0 -- -- 77
2019-03-31 13:00:00 17.5 28 Este 44 Este 0 -- -- 75
2019-03-31 12:00:00 17.1 23 Este 39 Este 0 -- -- 77
2019-03-31 11:00:00 16.2 18 Este 33 Este 0 -- -- 80
2019-03-31 10:00:00 15.7 16 Este 32 Este 0 -- -- 81
2019-03-31 09:00:00 13.6 10 Norte 16 Nordeste 0 -- -- 93
2019-03-31 08:00:00 11.7 8 Nordeste 18 Nordeste 0 -- -- 96
2019-03-31 07:00:00 10.9 8 Nordeste 18 Nordeste 0 -- -- 96
2019-03-31 06:00:00 11.3 13 Nordeste 21 Nordeste 0 -- -- 95
2019-03-31 05:00:00 11.2 11 Nordeste 16 Nordeste 0 -- -- 95
2019-03-31 03:00:00 10.6 8 Nordeste 13 Nordeste 0 -- -- 93
2019-03-31 01:00:00 11 8 Nordeste 13 Nordeste 0 -- -- 93
2019-03-31 00:00:00 11.5 9 Nordeste 13 Norte 0 -- -- 92
2019-03-30 23:00:00 11.8 5 Nordeste 10 Nordeste 0 -- -- 90
2019-03-30 22:00:00 12.2 6 Norte 9 Nordeste 0 -- -- 88
2019-03-30 21:00:00 13.4 6 Nordeste 11 Nordeste 0 -- -- 87
2019-03-30 20:00:00 14.1 9 Este 24 Nordeste 0 -- -- 86
2019-03-30 19:00:00 15.2 15 Este 29 Este 0 -- -- 78
2019-03-30 18:00:00 15.9 17 Este 32 Este 0 -- -- 73
2019-03-30 17:00:00 16.9 21 Este 31 Este 0 -- -- 70
2019-03-30 16:00:00 17.7 18 Este 31 Este 0 -- -- 65
2019-03-30 15:00:00 17.4 21 Este 35 Este 0 -- -- 68
2019-03-30 14:00:00 17.5 19 Este 30 Este 0 -- -- 65
2019-03-30 13:00:00 16.9 18 Este 34 Este 0 -- -- 65
2019-03-30 12:00:00 17.8 15 Este 28 Este 0 -- -- 61
2019-03-30 11:00:00 17 16 Este 28 Sudeste 0 -- -- 62
2019-03-30 10:00:00 16 14 Este 26 Este 0 -- -- 61
2019-03-30 09:00:00 13.6 10 Norte 17 Este 0 -- -- 75
2019-03-30 08:00:00 10.5 9 Nordeste 14 Nordeste 0 -- -- 83
2019-03-30 07:00:00 9.2 9 Nordeste 17 Nordeste 0 -- -- 86
2019-03-30 06:00:00 9.4 10 Nordeste 17 Este 0 -- -- 85
2019-03-30 05:00:00 10.1 7 Nordeste 14 Nordeste 0 -- -- 82
2019-03-30 04:00:00 9.3 6 Norte 8 Norte 0 -- -- 85
2019-03-30 03:00:00 9.4 3 Noroeste 10 Norte 0 -- -- 87
2019-03-30 02:00:00 9.2 4 Norte 7 Nordeste 0 -- -- 86
2019-03-30 01:00:00 7.4 2 Norte 5 Norte 0 -- -- 91
2019-03-30 00:00:00 5.9 0 Calma 3 Nordeste 0 -- -- 87
2019-03-29 23:00:00 8 0 Calma 3 Nordeste 0 -- -- 83
2019-03-29 22:00:00 9.7 0 Calma 9 Este 0 -- -- 80
2019-03-29 21:00:00 11.7 8 Este 13 Este 0 -- -- 78
2019-03-29 20:00:00 12.4 8 Este 17 Nordeste 0 -- -- 74
2019-03-29 19:00:00 14 11 Este 30 Este 0 -- -- 67
2019-03-29 18:00:00 15.9 19 Este 34 Este 0 -- -- 59
2019-03-29 17:00:00 16.8 21 Este 35 Este 0 -- -- 55
2019-03-29 16:00:00 17.4 20 Sudeste 36 Sudeste 0 -- -- 54
2019-03-29 15:00:00 17.5 20 Sudeste 35 Este 0 -- -- 53
2019-03-29 14:00:00 17.7 20 Este 38 Sudeste 0 -- -- 48
2019-03-29 13:00:00 17.7 16 Este 32 Sudeste 0 -- -- 48
2019-03-29 12:00:00 17.1 15 Este 33 Este 0 -- -- 51
2019-03-29 11:00:00 16.4 19 Este 32 Este 0 -- -- 53
2019-03-29 10:00:00 15.3 16 Nordeste 27 Este 0 -- -- 58
2019-03-29 09:00:00 11.3 5 Norte 7 Nordeste 0 -- -- 85
2019-03-29 08:00:00 5.4 0 Calma 5 Sudeste 0 -- -- 94
2019-03-29 07:00:00 0.8 2 Sudeste 4 Noroeste 0 -- -- 93
2019-03-29 06:00:00 1.1 3 Norte 4 Nordeste 0 -- -- 93
2019-03-29 05:00:00 1.2 0 Calma 4 Norte 0 -- -- 92
2019-03-29 04:00:00 1.9 0 Calma 5 Noroeste 0 -- -- 91
2019-03-29 03:00:00 1.6 0 Calma 4 Sudeste 0 -- -- 90
2019-03-29 02:00:00 3.3 0 Calma 4 Noroeste 0 -- -- 90
2019-03-29 01:00:00 3 0 Calma 2 Norte 0 -- -- 88
2019-03-29 00:00:00 4 0 Calma 2 Sudeste 0 -- -- 87
2019-03-28 23:00:00 5 0 Calma 2 Sudeste 0 -- -- 83
2019-03-28 22:00:00 6.7 0 Calma 4 Noroeste 0 -- -- 75
2019-03-28 21:00:00 11 4 Nordeste 9 Norte 0 -- -- 70
2019-03-28 20:00:00 12.4 4 Nordeste 13 Sudeste 0 -- -- 69
2019-03-28 19:00:00 14.1 10 Este 26 Este 0 -- -- 69
2019-03-28 18:00:00 15.5 17 Este 31 Este 0 -- -- 63
2019-03-28 17:00:00 17.4 12 Nordeste 32 Este 0 -- -- 53
2019-03-28 16:00:00 18 16 Nordeste 32 Nordeste 0 -- -- 48
2019-03-28 15:00:00 18.1 18 Este 29 Nordeste 0 -- -- 46
2019-03-28 14:00:00 18.2 16 Nordeste 38 Norte 0 -- -- 39
2019-03-28 13:00:00 18.7 23 Nordeste 40 Nordeste 0 -- -- 37
2019-03-28 12:00:00 18.1 19 Nordeste 39 Norte 0 -- -- 41
2019-03-28 11:00:00 17 18 Norte 33 Norte 0 -- -- 47
2019-03-28 10:00:00 15.3 18 Nordeste 27 Nordeste 0 -- -- 58
2019-03-28 09:00:00 12.7 15 Nordeste 22 Nordeste 0 -- -- 77
2019-03-28 08:00:00 5.4 0 Calma 3 Oeste 0 -- -- 93
2019-03-28 07:00:00 0.7 0 Calma 3 Sudeste 0 -- -- 93
2019-03-28 06:00:00 0.3 0 Calma 3 Sudeste 0 -- -- 92
2019-03-28 05:00:00 1 0 Calma 4 Oeste 0 -- -- 91
2019-03-28 04:00:00 1.8 0 Calma 3 Sudeste 0 -- -- 89
2019-03-28 03:00:00 3.1 0 Calma 7 Nordeste 0 -- -- 87
2019-03-28 02:00:00 4.5 3 Norte 5 Nordeste 0 -- -- 87
2019-03-28 01:00:00 3.8 0 Calma 4 Norte 0 -- -- 88
2019-03-28 00:00:00 6.4 4 Norte 7 Norte 0 -- -- 88
2019-03-27 23:00:00 6.6 4 Norte 6 Norte 0 -- -- 86
2019-03-27 22:00:00 7.9 3 Norte 9 Norte 0 -- -- 80
2019-03-27 21:00:00 10.2 5 Norte 14 Norte 0 -- -- 77
2019-03-27 20:00:00 11.3 9 Nordeste 23 Norte 0 -- -- 70
2019-03-27 19:00:00 13.2 14 Norte 28 Nordeste 0 -- -- 63
2019-03-27 18:00:00 15.4 19 Norte 31 Norte 0 -- -- 51
2019-03-27 17:00:00 16.7 23 Norte 37 Norte 0 -- -- 45
2019-03-27 16:00:00 17.3 24 Norte 37 Norte 0 -- -- 42
2019-03-27 15:00:00 17.5 27 Norte 42 Norte 0 -- -- 43
2019-03-27 14:00:00 17.8 29 Norte 43 Norte 0 -- -- 42
2019-03-27 13:00:00 17.7 22 Nordeste 41 Norte 0 -- -- 43
2019-03-27 12:00:00 17.3 26 Norte 49 Norte 0 -- -- 41
2019-03-27 11:00:00 16.5 25 Norte 36 Nordeste 0 -- -- 47
2019-03-27 10:00:00 15.3 23 Nordeste 35 Norte 0 -- -- 52
2019-03-27 09:00:00 13.8 19 Norte 30 Nordeste 0 -- -- 70
2019-03-27 08:00:00 9.3 7 Nordeste 11 Nordeste 0 -- -- 80
2019-03-27 07:00:00 5.2 0 Calma 10 Nordeste 0 -- -- 87
2019-03-27 06:00:00 1.9 7 Norte 9 Norte 0 -- -- 87
2019-03-27 05:00:00 0.8 2 Nordeste 4 Nordeste 0 -- -- 89
2019-03-27 04:00:00 1.4 0 Calma 5 Noroeste 0 -- -- 87
2019-03-27 03:00:00 2 4 Norte 5 Norte 0 -- -- 89
2019-03-27 02:00:00 1.1 0 Calma 3 Oeste 0 -- -- 87
2019-03-27 01:00:00 1.7 0 Calma 3 Sudeste 0 -- -- 86
2019-03-27 00:00:00 3.2 0 Calma 4 Norte 0 -- -- 83